Time;durP1;ratioP1;P1;durP2;ratioP2;P2;SDS_P1;SDS_P2;PMS_P1;PMS_P2;Temp;Humidity;BMP_temperature;BMP_pressure;BME280_temperature;BME280_humidity;BME280_pressure;Samples;Min_cycle;Max_cycle;Signal;HPM_P1;HPM_P2
2022/08/01 00:01:43;;;;;;;6.43;3.42;;;23.60;99.90;;;;;;4980806;28;20210;-75
2022/08/01 00:04:08;;;;;;;12.55;9.10;;;23.50;99.90;;;;;;4974264;28;20197;-76
2022/08/01 00:06:34;;;;;;;5.65;4.55;;;23.50;99.90;;;;;;4982869;28;20300;-76
2022/08/01 00:08:59;;;;;;;11.05;8.65;;;23.40;99.90;;;;;;4973929;28;20213;-76
2022/08/01 00:11:25;;;;;;;7.07;5.20;;;23.40;99.90;;;;;;4982309;28;20205;-76
2022/08/01 00:13:51;;;;;;;5.57;4.28;;;23.30;99.90;;;;;;4985293;28;20181;-76
2022/08/01 00:16:16;;;;;;;7.30;4.38;;;23.30;99.90;;;;;;4982318;28;20720;-76
2022/08/01 00:18:42;;;;;;;3.88;3.47;;;23.30;99.90;;;;;;4970443;28;20209;-76
2022/08/01 00:21:07;;;;;;;5.38;4.18;;;23.20;99.90;;;;;;4982161;28;20210;-76
2022/08/01 00:23:33;;;;;;;4.28;3.58;;;23.20;99.90;;;;;;4988334;28;20206;-76
2022/08/01 00:25:59;;;;;;;5.40;4.28;;;23.20;99.90;;;;;;4983096;28;20174;-76
2022/08/01 00:28:24;;;;;;;4.55;3.42;;;23.30;99.90;;;;;;4964930;28;20301;-75
2022/08/01 00:30:50;;;;;;;4.60;3.88;;;23.30;99.90;;;;;;4985303;28;20209;-76
2022/08/01 00:33:15;;;;;;;4.47;4.07;;;23.10;99.90;;;;;;4976518;28;20237;-76
2022/08/01 00:35:41;;;;;;;6.38;3.80;;;23.10;99.90;;;;;;4968959;28;20229;-76
2022/08/01 00:38:07;;;;;;;4.60;3.50;;;23.10;99.90;;;;;;4991045;28;20622;-75
2022/08/01 00:40:32;;;;;;;15.20;11.45;;;23.00;99.90;;;;;;4988296;28;20315;-77
2022/08/01 00:42:58;;;;;;;7.13;4.07;;;23.00;99.90;;;;;;4985670;28;20269;-76
2022/08/01 00:45:23;;;;;;;4.97;3.45;;;22.90;99.90;;;;;;4971834;28;20220;-75
2022/08/01 00:47:49;;;;;;;3.63;3.30;;;22.80;99.90;;;;;;4987914;28;20212;-76
2022/08/01 00:50:15;;;;;;;4.47;4.00;;;22.80;99.90;;;;;;4987322;28;20220;-76
2022/08/01 00:52:41;;;;;;;4.10;3.60;;;22.70;99.90;;;;;;4986743;28;20354;-77
2022/08/01 00:55:09;;;;;;;6.75;3.97;;;22.70;99.90;;;;;;4992242;28;20197;-77
2022/08/01 00:57:34;;;;;;;4.38;3.55;;;22.70;99.90;;;;;;4972225;28;20226;-75
2022/08/01 01:00:00;;;;;;;4.53;3.80;;;22.80;99.90;;;;;;4985543;28;20218;-76
2022/08/01 01:02:26;;;;;;;4.70;3.63;;;22.70;99.90;;;;;;4987135;28;20874;-75
2022/08/01 01:04:51;;;;;;;4.30;3.85;;;22.70;99.90;;;;;;4988767;28;20558;-75
2022/08/01 01:07:27;;;;;;;5.75;3.53;;;22.80;99.90;;;;;;4985243;28;20203;-75
2022/08/01 01:10:11;;;;;;;5.28;4.28;;;22.80;99.90;;;;;;4986540;28;20202;-75
2022/08/01 01:12:49;;;;;;;5.50;4.25;;;22.80;99.90;;;;;;4971847;28;20719;-76
2022/08/01 01:15:36;;;;;;;5.65;3.92;;;22.80;99.90;;;;;;4985653;28;20210;-76
2022/08/01 01:18:12;;;;;;;3.70;3.40;;;22.60;99.90;;;;;;4971882;28;20213;-75
2022/08/01 01:20:41;;;;;;;4.55;3.95;;;22.70;99.90;;;;;;4988555;28;20588;-76
2022/08/01 01:23:34;;;;;;;4.30;3.90;;;22.70;99.90;;;;;;4978265;28;20220;-76
2022/08/01 01:26:47;;;;;;;4.82;4.18;;;22.70;99.90;;;;;;4987394;28;20226;-76
2022/08/01 01:29:23;;;;;;;4.20;3.80;;;22.80;99.90;;;;;;4958752;28;20208;-76
2022/08/01 01:31:59;;;;;;;7.47;4.72;;;22.80;99.90;;;;;;4988695;28;20217;-76
2022/08/01 01:34:27;;;;;;;5.75;4.03;;;22.70;99.90;;;;;;4986164;28;20247;-75
2022/08/01 01:36:55;;;;;;;5.28;4.03;;;22.70;99.90;;;;;;4985455;28;20245;-76
2022/08/01 01:39:21;;;;;;;5.13;4.63;;;22.60;99.90;;;;;;4990236;28;20202;-76
2022/08/01 01:41:49;;;;;;;5.35;4.05;;;22.50;99.90;;;;;;4986258;28;20226;-76
2022/08/01 01:44:15;;;;;;;6.78;4.03;;;22.40;99.90;;;;;;4972488;28;20185;-76
2022/08/01 01:46:42;;;;;;;4.13;3.78;;;22.40;99.90;;;;;;4986776;28;20916;-76
2022/08/01 01:49:12;;;;;;;5.38;4.43;;;22.50;99.90;;;;;;4975589;28;20284;-76
2022/08/01 01:51:40;;;;;;;4.55;4.18;;;22.40;99.90;;;;;;4975106;28;20691;-76
2022/08/01 01:54:09;;;;;;;4.38;3.78;;;22.30;99.90;;;;;;4991743;28;20216;-75
2022/08/01 01:56:48;;;;;;;4.22;3.60;;;22.40;99.90;;;;;;4986757;28;20178;-75
2022/08/01 01:59:26;;;;;;;4.47;3.70;;;22.40;99.90;;;;;;4985072;28;20162;-75
2022/08/01 02:01:55;;;;;;;5.47;3.80;;;22.30;99.90;;;;;;4989523;28;20288;-75
2022/08/01 02:04:22;;;;;;;5.22;4.28;;;22.10;99.90;;;;;;4980357;28;20213;-75
2022/08/01 02:06:50;;;;;;;5.50;4.50;;;22.10;99.90;;;;;;4987386;28;20225;-75
2022/08/01 02:09:18;;;;;;;5.18;4.40;;;22.00;99.90;;;;;;4984275;28;20209;-76
2022/08/01 02:11:45;;;;;;;4.05;3.75;;;22.00;99.90;;;;;;4984841;28;20702;-76
2022/08/01 02:14:12;;;;;;;5.72;4.35;;;22.00;99.90;;;;;;4986436;28;20180;-76
2022/08/01 02:16:41;;;;;;;5.95;4.22;;;22.10;99.90;;;;;;4966558;28;20747;-76
2022/08/01 02:19:07;;;;;;;5.78;4.07;;;22.00;99.90;;;;;;4981888;28;20210;-77
2022/08/01 02:21:48;;;;;;;4.72;4.25;;;21.80;99.90;;;;;;4984810;28;20257;-76
2022/08/01 02:24:38;;;;;;;5.28;4.45;;;21.70;99.90;;;;;;4972329;28;20206;-76
2022/08/01 02:27:10;;;;;;;5.50;5.00;;;21.60;99.90;;;;;;4984051;28;20209;-76
2022/08/01 02:29:53;;;;;;;4.60;4.20;;;21.50;99.90;;;;;;4982975;28;20246;-76
2022/08/01 02:32:30;;;;;;;5.00;4.50;;;21.40;99.90;;;;;;4982574;28;20206;-76
2022/08/01 02:34:57;;;;;;;5.13;4.22;;;21.40;99.90;;;;;;4983200;28;20198;-76
2022/08/01 02:37:26;;;;;;;5.45;4.80;;;21.40;99.90;;;;;;4982833;28;20666;-76
2022/08/01 02:39:54;;;;;;;6.45;4.65;;;21.50;99.90;;;;;;4989421;28;20202;-76
2022/08/01 02:42:21;;;;;;;4.70;4.30;;;21.60;99.90;;;;;;4981482;28;20205;-76
2022/08/01 02:44:48;;;;;;;4.95;4.53;;;21.70;99.90;;;;;;4984048;28;20272;-76
2022/08/01 02:47:17;;;;;;;6.03;4.80;;;21.70;99.90;;;;;;4988984;28;20253;-76
2022/08/01 02:49:45;;;;;;;5.55;5.00;;;21.70;99.90;;;;;;4984895;28;20201;-75
2022/08/01 02:52:15;;;;;;;5.68;4.85;;;21.80;99.90;;;;;;4991534;28;20400;-76
2022/08/01 02:54:44;;;;;;;5.38;4.85;;;21.70;99.90;;;;;;4988281;28;20624;-76
2022/08/01 02:57:10;;;;;;;5.43;4.95;;;21.70;99.90;;;;;;4985480;28;20240;-76
2022/08/01 02:59:38;;;;;;;5.75;4.57;;;21.70;99.90;;;;;;4986593;28;20931;-77
2022/08/01 03:02:06;;;;;;;6.85;5.32;;;21.70;99.90;;;;;;4970526;28;20194;-76
2022/08/01 03:04:34;;;;;;;6.40;5.10;;;21.70;99.90;;;;;;4968335;28;20206;-76
2022/08/01 03:07:03;;;;;;;5.30;4.80;;;21.70;99.90;;;;;;4984968;28;20678;-75
2022/08/01 03:09:33;;;;;;;6.57;5.03;;;21.60;99.90;;;;;;4971140;28;20259;-75
2022/08/01 03:12:03;;;;;;;6.32;4.85;;;21.60;99.90;;;;;;4968435;28;20226;-76
2022/08/01 03:14:30;;;;;;;5.05;4.65;;;21.60;99.90;;;;;;4987499;28;20212;-76
2022/08/01 03:16:57;;;;;;;5.63;5.10;;;21.60;99.90;;;;;;4975456;28;20193;-75
2022/08/01 03:19:25;;;;;;;7.43;5.10;;;21.60;99.90;;;;;;4987957;28;20206;-75
2022/08/01 03:21:51;;;;;;;5.15;4.75;;;21.70;99.90;;;;;;4987626;28;20721;-76
2022/08/01 03:24:19;;;;;;;5.03;4.53;;;21.60;99.90;;;;;;4982014;28;20211;-75
2022/08/01 03:26:45;;;;;;;5.15;4.65;;;21.60;99.90;;;;;;4974770;28;20244;-76
2022/08/01 03:29:19;;;;;;;5.32;4.68;;;21.60;99.90;;;;;;4987768;28;20248;-75
2022/08/01 03:31:47;;;;;;;7.10;5.15;;;21.50;99.90;;;;;;4986006;28;20263;-75
2022/08/01 03:34:13;;;;;;;5.18;4.60;;;21.40;99.90;;;;;;4988778;28;20197;-75
2022/08/01 03:36:46;;;;;;;5.30;4.72;;;21.40;99.90;;;;;;4970943;28;20213;-75
2022/08/01 03:39:13;;;;;;;5.47;4.30;;;21.40;99.90;;;;;;4990088;28;20247;-75
2022/08/01 03:41:43;;;;;;;5.30;4.80;;;21.50;99.90;;;;;;4984406;28;20217;-75
2022/08/01 03:44:14;;;;;;;5.50;4.57;;;21.60;99.90;;;;;;4973970;28;20240;-75
2022/08/01 03:46:46;;;;;;;4.70;4.25;;;21.50;99.90;;;;;;4986523;28;20198;-75
2022/08/01 03:49:18;;;;;;;6.07;4.43;;;21.50;99.90;;;;;;4983893;28;20213;-76
2022/08/01 03:51:49;;;;;;;4.45;4.05;;;21.60;99.90;;;;;;4969699;28;20296;-76
2022/08/01 03:54:16;;;;;;;5.10;4.65;;;21.60;99.90;;;;;;4973978;28;20212;-75
2022/08/01 03:56:43;;;;;;;4.57;4.03;;;21.70;99.90;;;;;;4985902;28;20204;-76
2022/08/01 03:59:09;;;;;;;7.47;4.70;;;21.60;99.90;;;;;;4980992;28;20606;-75
2022/08/01 04:01:36;;;;;;;4.93;4.50;;;21.70;99.90;;;;;;4989604;28;20296;-76
2022/08/01 04:04:04;;;;;;;5.30;4.80;;;21.60;99.90;;;;;;4988188;28;20678;-75
2022/08/01 04:06:30;;;;;;;8.55;6.22;;;21.70;99.90;;;;;;4983693;28;20573;-75
2022/08/01 04:08:56;;;;;;;8.23;6.28;;;21.50;99.90;;;;;;4987787;28;20212;-76
2022/08/01 04:11:25;;;;;;;8.70;7.10;;;21.40;99.90;;;;;;4992676;28;20197;-75
2022/08/01 04:13:53;;;;;;;10.32;7.20;;;21.50;99.90;;;;;;4987246;28;20252;-76
2022/08/01 04:16:19;;;;;;;13.40;7.18;;;21.40;99.90;;;;;;4994300;28;20233;-75
2022/08/01 04:18:45;;;;;;;8.48;7.15;;;21.50;99.90;;;;;;4993730;28;20193;-75
2022/08/01 04:21:11;;;;;;;11.00;7.38;;;21.50;99.90;;;;;;4972549;28;20582;-77
2022/08/01 04:23:40;;;;;;;12.23;7.35;;;21.50;99.90;;;;;;4987385;28;20210;-76
2022/08/01 04:26:07;;;;;;;8.50;7.18;;;21.50;99.90;;;;;;4978606;28;20177;-75
2022/08/01 04:28:35;;;;;;;11.57;6.57;;;21.50;99.90;;;;;;4983927;28;20245;-76
2022/08/01 04:31:04;;;;;;;8.70;6.97;;;21.50;99.90;;;;;;4987692;28;20217;-75
2022/08/01 04:33:30;;;;;;;7.82;6.38;;;21.50;99.90;;;;;;4969335;28;20222;-76
2022/08/01 04:35:58;;;;;;;8.55;6.82;;;21.40;99.90;;;;;;4993013;28;20297;-75
2022/08/01 04:38:27;;;;;;;9.10;6.93;;;21.50;99.90;;;;;;4995415;28;20180;-75
2022/08/01 04:40:53;;;;;;;8.85;6.90;;;21.50;99.90;;;;;;4988373;28;20213;-75
2022/08/01 04:43:19;;;;;;;8.38;7.53;;;21.50;99.90;;;;;;4990953;28;20225;-75
2022/08/01 04:45:47;;;;;;;11.48;8.38;;;21.50;99.90;;;;;;4970738;28;20202;-75
2022/08/01 04:48:14;;;;;;;11.05;8.07;;;21.30;99.90;;;;;;4987290;28;20228;-75
2022/08/01 04:50:41;;;;;;;13.00;8.80;;;21.30;99.90;;;;;;4986791;28;20206;-76
2022/08/01 04:53:16;;;;;;;9.52;8.52;;;21.00;99.90;;;;;;4993375;28;20201;-76
2022/08/01 04:55:42;;;;;;;10.35;8.55;;;21.10;99.90;;;;;;4989473;28;20201;-76
2022/08/01 04:58:10;;;;;;;9.88;8.57;;;21.10;99.90;;;;;;4986048;28;20208;-76
2022/08/01 05:00:36;;;;;;;11.18;8.45;;;21.10;99.90;;;;;;4991967;28;20736;-76
2022/08/01 05:03:01;;;;;;;10.20;8.00;;;21.10;99.90;;;;;;4990401;28;20369;-76
2022/08/01 05:05:27;;;;;;;10.30;7.72;;;21.20;99.90;;;;;;4980517;28;20194;-75
2022/08/01 05:07:52;;;;;;;9.30;7.78;;;21.20;99.90;;;;;;4987100;28;20253;-75
2022/08/01 05:10:18;;;;;;;10.50;8.07;;;21.20;99.90;;;;;;4973301;28;20687;-76
2022/08/01 05:12:43;;;;;;;11.40;7.80;;;21.20;99.90;;;;;;4972838;28;20278;-76
2022/08/01 05:15:09;;;;;;;9.52;7.68;;;21.20;99.90;;;;;;4985439;28;20202;-76
2022/08/01 05:17:35;;;;;;;8.70;7.75;;;21.10;99.90;;;;;;4983807;28;20178;-76
2022/08/01 05:20:01;;;;;;;10.00;8.20;;;21.20;99.90;;;;;;4987182;28;20691;-76
2022/08/01 05:22:27;;;;;;;10.30;8.40;;;21.10;99.90;;;;;;4982989;28;20207;-76
2022/08/01 05:24:52;;;;;;;9.32;8.38;;;21.20;99.90;;;;;;4984101;28;20279;-76
2022/08/01 05:27:18;;;;;;;10.30;8.00;;;21.40;99.90;;;;;;4985968;28;20292;-77
2022/08/01 05:29:44;;;;;;;10.57;8.30;;;21.40;99.90;;;;;;4984138;28;20233;-76
2022/08/01 05:32:09;;;;;;;8.88;7.45;;;21.40;99.90;;;;;;5017564;23;20250;-69
2022/08/01 05:34:35;;;;;;;8.65;7.75;;;21.50;99.90;;;;;;5036833;28;20250;-69
2022/08/01 05:37:01;;;;;;;12.20;8.43;;;21.60;99.90;;;;;;5033229;28;20196;-69
2022/08/01 05:39:26;;;;;;;8.13;7.25;;;21.50;99.90;;;;;;5032569;28;20219;-69
2022/08/01 05:41:52;;;;;;;8.75;7.50;;;21.50;99.90;;;;;;5027572;28;20208;-70
2022/08/01 05:44:17;;;;;;;8.23;6.50;;;21.60;99.90;;;;;;4993547;28;20172;-69
2022/08/01 05:46:43;;;;;;;9.52;7.03;;;21.70;99.90;;;;;;5008331;28;20205;-69
2022/08/01 05:49:09;;;;;;;8.13;7.32;;;21.70;99.90;;;;;;5004307;28;20224;-70
2022/08/01 05:51:34;;;;;;;7.82;7.10;;;21.70;99.90;;;;;;5006481;28;20217;-70
2022/08/01 05:54:00;;;;;;;8.07;7.28;;;21.70;99.90;;;;;;5010434;28;20196;-69
2022/08/01 05:56:25;;;;;;;9.93;7.25;;;21.70;99.90;;;;;;5005495;28;20185;-69
2022/08/01 05:58:51;;;;;;;8.95;7.50;;;21.50;99.90;;;;;;5006065;28;20173;-69
2022/08/01 06:01:18;;;;;;;10.18;7.72;;;21.60;99.90;;;;;;4994262;28;20250;-69
2022/08/01 06:03:44;;;;;;;10.38;7.85;;;21.50;99.90;;;;;;5010064;28;20197;-69
2022/08/01 06:06:10;;;;;;;10.30;8.68;;;21.50;99.90;;;;;;5010145;28;20204;-69
2022/08/01 06:08:35;;;;;;;8.98;7.28;;;21.40;99.90;;;;;;5008527;28;20202;-69
2022/08/01 06:11:01;;;;;;;8.38;7.55;;;21.30;99.90;;;;;;5013470;28;20169;-69
2022/08/01 06:13:27;;;;;;;8.38;6.85;;;21.40;99.90;;;;;;4993725;28;20596;-70
2022/08/01 06:15:52;;;;;;;9.32;7.50;;;21.40;99.90;;;;;;4996215;28;20236;-69
2022/08/01 06:18:19;;;;;;;8.05;7.13;;;21.50;99.90;;;;;;5010911;28;20211;-69
2022/08/01 06:20:45;;;;;;;8.65;7.40;;;21.50;99.90;;;;;;5009175;28;20272;-69
2022/08/01 06:23:10;;;;;;;7.00;6.30;;;21.50;99.90;;;;;;5005640;28;20638;-68
2022/08/01 06:25:36;;;;;;;8.65;5.93;;;21.60;99.90;;;;;;5007056;28;20641;-69
2022/08/01 06:28:02;;;;;;;6.82;5.53;;;21.70;99.90;;;;;;5010066;28;20232;-68
2022/08/01 06:30:28;;;;;;;9.15;5.30;;;21.80;99.90;;;;;;5006492;28;20690;-69
2022/08/01 06:32:55;;;;;;;6.60;4.32;;;21.80;99.90;;;;;;5007376;28;20224;-69
2022/08/01 06:35:21;;;;;;;5.57;4.05;;;21.90;99.90;;;;;;4990231;28;20618;-69
2022/08/01 06:37:48;;;;;;;3.85;3.53;;;22.00;99.90;;;;;;5007780;28;20212;-69
2022/08/01 06:40:15;;;;;;;5.15;3.38;;;22.20;99.90;;;;;;5011448;28;20204;-68
2022/08/01 06:42:40;;;;;;;4.40;3.95;;;22.20;99.90;;;;;;5006962;28;20210;-69
2022/08/01 06:45:09;;;;;;;5.57;3.35;;;22.40;99.90;;;;;;5009387;28;20365;-69
2022/08/01 06:47:35;;;;;;;3.78;3.20;;;22.50;99.90;;;;;;5005043;28;20184;-69
2022/08/01 06:50:01;;;;;;;4.50;2.78;;;22.60;99.90;;;;;;5003430;28;20172;-69
2022/08/01 06:52:26;;;;;;;4.45;3.35;;;22.80;99.90;;;;;;5007108;28;20221;-70
2022/08/01 06:54:53;;;;;;;3.03;2.80;;;22.80;99.90;;;;;;4990461;28;20207;-69
2022/08/01 06:57:18;;;;;;;3.00;2.70;;;22.80;99.90;;;;;;4985442;28;20260;-70
2022/08/01 06:59:44;;;;;;;4.28;2.70;;;22.50;99.90;;;;;;4993660;28;20217;-69
2022/08/01 07:02:10;;;;;;;3.40;2.85;;;22.50;99.90;;;;;;5009570;28;20188;-70
2022/08/01 07:04:35;;;;;;;2.88;2.50;;;22.40;99.90;;;;;;4988835;28;20213;-70
2022/08/01 07:07:01;;;;;;;3.92;2.85;;;22.40;99.90;;;;;;5003046;28;20295;-69
2022/08/01 07:09:27;;;;;;;4.15;2.67;;;22.40;99.90;;;;;;5006717;28;20196;-70
2022/08/01 07:11:53;;;;;;;4.00;2.92;;;22.40;99.90;;;;;;5007645;28;20217;-70
2022/08/01 07:14:20;;;;;;;2.65;2.45;;;22.40;99.90;;;;;;5003170;28;20174;-69
2022/08/01 07:16:45;;;;;;;3.67;2.97;;;22.30;99.90;;;;;;5007035;28;20216;-69
2022/08/01 07:19:12;;;;;;;3.30;3.00;;;22.20;99.90;;;;;;5008471;28;20620;-69
2022/08/01 07:21:38;;;;;;;3.45;2.33;;;22.20;99.90;;;;;;4987815;28;20221;-69
2022/08/01 07:24:05;;;;;;;3.25;3.00;;;22.10;99.90;;;;;;5002788;28;20204;-69
2022/08/01 07:26:30;;;;;;;3.45;3.00;;;22.20;99.90;;;;;;5007388;28;20181;-69
2022/08/01 07:28:56;;;;;;;3.70;3.38;;;22.30;99.90;;;;;;4990399;28;20652;-69
2022/08/01 07:31:22;;;;;;;5.38;3.47;;;22.30;99.90;;;;;;5003079;28;20263;-69
2022/08/01 07:33:48;;;;;;;5.10;3.70;;;22.40;99.90;;;;;;4989284;28;20208;-69
2022/08/01 07:36:14;;;;;;;4.93;3.35;;;22.50;99.90;;;;;;5008501;28;20216;-69
2022/08/01 07:38:40;;;;;;;3.50;3.20;;;22.50;99.90;;;;;;5004961;28;20650;-69
2022/08/01 07:41:05;;;;;;;3.60;3.30;;;22.70;99.90;;;;;;5009136;28;20259;-69
2022/08/01 07:43:31;;;;;;;3.17;2.88;;;22.80;99.90;;;;;;5007305;28;20216;-69
2022/08/01 07:45:56;;;;;;;3.50;3.20;;;23.00;99.90;;;;;;5007509;28;20201;-69
2022/08/01 07:48:23;;;;;;;4.75;3.33;;;23.20;99.90;;;;;;5002086;28;20206;-70
2022/08/01 07:50:50;;;;;;;6.18;3.08;;;23.10;99.90;;;;;;5003399;28;20216;-69
2022/08/01 07:53:16;;;;;;;3.83;3.03;;;23.20;99.90;;;;;;5008376;28;20200;-69
2022/08/01 07:55:42;;;;;;;3.47;3.05;;;23.10;99.90;;;;;;4992918;28;20201;-70
2022/08/01 07:58:07;;;;;;;3.78;3.17;;;23.10;99.90;;;;;;5001951;28;20228;-70
2022/08/01 08:00:33;;;;;;;4.82;3.40;;;22.90;99.90;;;;;;5006677;28;20233;-70
2022/08/01 08:02:59;;;;;;;4.60;3.95;;;22.80;99.90;;;;;;5009535;28;20260;-70
2022/08/01 08:05:26;;;;;;;7.97;5.15;;;22.60;99.90;;;;;;5003255;28;20181;-70
2022/08/01 08:07:51;;;;;;;5.43;4.93;;;22.40;99.90;;;;;;5000510;28;20708;-70
2022/08/01 08:10:17;;;;;;;5.15;4.65;;;22.10;99.90;;;;;;5008515;28;20200;-69
2022/08/01 08:12:43;;;;;;;6.53;5.40;;;21.90;99.90;;;;;;5006203;28;20291;-69
2022/08/01 08:15:09;;;;;;;7.25;4.40;;;22.00;99.90;;;;;;5002454;28;20231;-70
2022/08/01 08:17:35;;;;;;;6.65;5.10;;;22.00;99.90;;;;;;5007919;28;20185;-70
2022/08/01 08:20:01;;;;;;;4.13;3.63;;;22.10;99.90;;;;;;5007822;28;20711;-70
2022/08/01 08:22:27;;;;;;;5.53;3.72;;;22.20;99.90;;;;;;5002496;28;20591;-70
2022/08/01 08:24:53;;;;;;;4.95;4.15;;;22.40;99.90;;;;;;4993363;28;20200;-70
2022/08/01 08:27:18;;;;;;;6.20;4.80;;;22.60;99.90;;;;;;5008054;28;20298;-70
2022/08/01 08:29:44;;;;;;;4.57;4.03;;;22.80;99.90;;;;;;4992641;28;20209;-70
2022/08/01 08:32:09;;;;;;;4.25;3.85;;;22.70;99.90;;;;;;5004285;28;20694;-70
2022/08/01 08:34:35;;;;;;;4.75;4.13;;;22.70;99.90;;;;;;5006010;28;20194;-69
2022/08/01 08:37:01;;;;;;;4.30;3.40;;;22.70;99.90;;;;;;5007541;28;20279;-69
2022/08/01 08:39:29;;;;;;;6.53;3.53;;;22.80;99.90;;;;;;5003311;28;20293;-70
2022/08/01 08:41:59;;;;;;;3.65;3.35;;;22.90;99.90;;;;;;5009091;28;20271;-70
2022/08/01 08:44:25;;;;;;;4.28;3.30;;;23.00;99.90;;;;;;5007654;28;20181;-70
2022/08/01 08:46:52;;;;;;;4.63;3.60;;;22.80;99.90;;;;;;5007828;28;20273;-70
2022/08/01 08:49:25;;;;;;;4.05;3.17;;;22.70;99.90;;;;;;5008830;28;20228;-70
2022/08/01 08:51:52;;;;;;;3.22;3.00;;;22.70;99.90;;;;;;5015790;28;20300;-70
2022/08/01 08:54:21;;;;;;;4.60;2.75;;;23.00;99.90;;;;;;5007069;28;20235;-69
2022/08/01 08:56:48;;;;;;;3.28;2.40;;;23.30;99.90;;;;;;4995662;28;20262;-71
2022/08/01 08:59:14;;;;;;;2.05;1.88;;;23.90;99.90;;;;;;5007227;28;20165;-70
2022/08/01 09:01:40;;;;;;;2.95;1.90;;;24.40;99.90;;;;;;5011445;28;20216;-69
2022/08/01 09:04:06;;;;;;;2.90;1.55;;;24.80;99.90;;;;;;5010631;28;20243;-69
2022/08/01 09:06:32;;;;;;;3.15;1.27;;;24.90;99.90;;;;;;5005277;28;20198;-69
2022/08/01 09:08:58;;;;;;;2.97;1.70;;;24.40;99.90;;;;;;5009353;28;20271;-70
2022/08/01 09:11:24;;;;;;;2.33;1.42;;;24.20;99.90;;;;;;4993702;28;20173;-69
2022/08/01 09:14:12;;;;;;;3.78;3.08;;;24.00;99.90;;;;;;5008725;28;20286;-69
2022/08/01 09:16:41;;;;;;;2.10;1.63;;;23.70;99.90;;;;;;5008380;28;20213;-69
2022/08/01 09:19:19;;;;;;;7.30;2.28;;;23.50;99.90;;;;;;5011805;28;20280;-69
2022/08/01 09:21:58;;;;;;;2.90;1.70;;;23.30;99.90;;;;;;5008737;28;20275;-69
2022/08/01 09:24:25;;;;;;;3.30;1.80;;;23.40;99.90;;;;;;4985428;28;20225;-70
2022/08/01 09:26:52;;;;;;;1.73;1.63;;;23.50;99.90;;;;;;5011940;28;20204;-69
2022/08/01 09:29:20;;;;;;;2.85;1.85;;;23.50;99.90;;;;;;5008374;28;20196;-69
2022/08/01 09:31:46;;;;;;;4.63;2.60;;;23.30;99.90;;;;;;5004873;28;20632;-69
2022/08/01 09:34:12;;;;;;;3.55;2.20;;;23.50;99.90;;;;;;5008972;28;20284;-69
2022/08/01 09:36:48;;;;;;;3.67;2.67;;;23.60;99.90;;;;;;5009373;28;20209;-70
2022/08/01 09:39:14;;;;;;;8.48;2.53;;;23.50;99.90;;;;;;5006044;28;20211;-69
2022/08/01 09:41:40;;;;;;;3.55;2.20;;;23.50;99.90;;;;;;4997243;28;20197;-69
2022/08/01 09:44:06;;;;;;;3.65;2.33;;;23.40;99.90;;;;;;5012591;28;20540;-69
2022/08/01 09:46:32;;;;;;;3.15;2.28;;;23.20;99.90;;;;;;5007577;28;20615;-69
2022/08/01 09:49:05;;;;;;;2.63;2.13;;;23.20;99.90;;;;;;5006925;28;20682;-68
2022/08/01 09:51:38;;;;;;;6.07;2.78;;;23.00;99.90;;;;;;4995022;28;20721;-70
2022/08/01 09:54:05;;;;;;;2.30;2.00;;;23.00;99.90;;;;;;5010299;28;20208;-69
2022/08/01 09:56:38;;;;;;;3.05;1.95;;;23.00;99.90;;;;;;4990253;28;20176;-70
2022/08/01 09:59:05;;;;;;;2.40;2.20;;;22.70;99.90;;;;;;5006076;28;20649;-69
2022/08/01 10:01:43;;;;;;;2.22;2.03;;;22.80;99.90;;;;;;5010261;28;20206;-69
2022/08/01 10:04:14;;;;;;;2.67;2.10;;;22.90;99.90;;;;;;5009007;28;20271;-69
2022/08/01 10:06:43;;;;;;;2.42;1.98;;;23.20;99.90;;;;;;5005752;28;20214;-69
2022/08/01 10:09:09;;;;;;;3.10;2.25;;;23.50;99.90;;;;;;5007760;28;20232;-69
2022/08/01 10:11:38;;;;;;;4.85;2.58;;;23.80;99.90;;;;;;4990692;28;20201;-69
2022/08/01 10:14:05;;;;;;;4.55;4.13;;;24.00;99.90;;;;;;5007009;28;20176;-70
2022/08/01 10:16:33;;;;;;;2.47;2.28;;;24.20;99.90;;;;;;5003301;28;20201;-69
2022/08/01 10:19:00;;;;;;;2.10;1.90;;;24.20;99.90;;;;;;4992432;28;20201;-70
2022/08/01 10:21:27;;;;;;;2.15;1.60;;;24.30;99.90;;;;;;5005842;28;20201;-69
2022/08/01 10:23:55;;;;;;;2.25;1.90;;;24.20;99.90;;;;;;5005873;28;20208;-69
2022/08/01 10:26:24;;;;;;;4.25;1.70;;;24.30;99.90;;;;;;5008112;28;20162;-69
2022/08/01 10:28:51;;;;;;;3.05;1.70;;;24.30;99.90;;;;;;4991408;28;20204;-69
2022/08/01 10:31:17;;;;;;;2.40;1.65;;;24.10;99.90;;;;;;5004624;28;20273;-69
2022/08/01 10:33:44;;;;;;;3.05;1.55;;;24.00;99.90;;;;;;5007408;28;20715;-69
2022/08/01 10:36:10;;;;;;;3.08;1.60;;;24.00;99.90;;;;;;5009875;28;20220;-69
2022/08/01 10:38:36;;;;;;;3.78;2.85;;;23.70;99.90;;;;;;4993422;28;20181;-69
2022/08/01 10:41:04;;;;;;;2.20;1.92;;;23.60;99.90;;;;;;5010837;28;20169;-69
2022/08/01 10:43:29;;;;;;;2.38;2.17;;;23.70;99.90;;;;;;5008437;28;20201;-69
2022/08/01 10:45:56;;;;;;;2.58;1.75;;;23.70;99.90;;;;;;5009023;28;20738;-69
2022/08/01 10:48:28;;;;;;;3.45;1.90;;;23.80;99.90;;;;;;5003488;28;20206;-69
2022/08/01 10:50:57;;;;;;;2.30;1.40;;;23.90;99.90;;;;;;5005120;28;20690;-69
2022/08/01 10:53:25;;;;;;;2.08;1.30;;;23.70;99.90;;;;;;5008850;28;20205;-69
2022/08/01 10:55:51;;;;;;;2.05;1.30;;;23.80;99.90;;;;;;5008097;28;20224;-69
2022/08/01 10:58:21;;;;;;;1.75;1.25;;;24.10;99.90;;;;;;5002408;28;20221;-68
2022/08/01 11:00:47;;;;;;;2.50;1.48;;;24.30;99.90;;;;;;5006779;28;20201;-67
2022/08/01 11:03:13;;;;;;;2.97;1.20;;;24.60;99.90;;;;;;4993269;28;20569;-69
2022/08/01 11:05:43;;;;;;;3.13;1.80;;;24.70;99.90;;;;;;5005009;28;20236;-68
2022/08/01 11:08:22;;;;;;;2.35;1.70;;;24.30;99.90;;;;;;5004763;28;20181;-68
2022/08/01 11:10:59;;;;;;;1.73;1.40;;;24.30;99.90;;;;;;5002688;28;20201;-69
2022/08/01 11:14:12;;;;;;;2.55;1.40;;;24.40;99.90;;;;;;5004213;28;20212;-68
2022/08/01 11:16:39;;;;;;;4.22;1.67;;;24.40;99.90;;;;;;5003063;28;20205;-69
2022/08/01 11:19:08;;;;;;;2.53;1.80;;;24.10;99.90;;;;;;4988041;28;20225;-69
2022/08/01 11:21:52;;;;;;;2.28;1.40;;;24.00;99.90;;;;;;5004745;28;20697;-68
2022/08/01 11:24:48;;;;;;;2.88;2.08;;;23.70;99.90;;;;;;5001977;28;20315;-70
2022/08/01 11:27:21;;;;;;;3.58;1.48;;;23.60;99.90;;;;;;5006586;28;20227;-69
2022/08/01 11:30:09;;;;;;;6.13;1.20;;;23.50;99.90;;;;;;5002721;28;20200;-70
2022/08/01 11:32:56;;;;;;;2.38;1.50;;;23.50;99.90;;;;;;5004654;28;20211;-70
2022/08/01 11:35:24;;;;;;;1.67;1.40;;;23.60;99.90;;;;;;5007139;28;20161;-69
2022/08/01 11:37:51;;;;;;;2.10;1.17;;;23.70;99.90;;;;;;5025109;23;20241;-74
2022/08/01 11:40:21;;;;;;;1.60;1.20;;;23.60;99.90;;;;;;4987856;28;20205;-77
2022/08/01 11:42:49;;;;;;;2.25;1.50;;;23.50;99.90;;;;;;5007560;28;20243;-75
2022/08/01 11:45:14;;;;;;;3.53;1.35;;;23.50;99.90;;;;;;5010251;28;20244;-75
2022/08/01 11:47:48;;;;;;;4.32;1.08;;;23.80;99.90;;;;;;5001583;28;20236;-75
2022/08/01 11:50:29;;;;;;;5.05;1.50;;;24.10;99.90;;;;;;4963457;28;20171;-75
2022/08/01 11:53:03;;;;;;;2.80;1.60;;;24.40;99.90;;;;;;4975260;28;20263;-75
2022/08/01 11:55:29;;;;;;;1.35;0.90;;;24.60;99.90;;;;;;4972703;28;20211;-75
2022/08/01 11:58:02;;;;;;;1.33;1.10;;;24.20;99.90;;;;;;4967646;28;20701;-76
2022/08/01 12:00:30;;;;;;;1.50;1.25;;;24.20;99.90;;;;;;4977425;28;20226;-75
2022/08/01 12:03:02;;;;;;;1.70;1.50;;;24.30;99.90;;;;;;4976675;28;20218;-76
2022/08/01 12:05:30;;;;;;;4.85;1.80;;;24.30;99.90;;;;;;4956565;28;20186;-75
2022/08/01 12:07:56;;;;;;;2.75;1.60;;;24.50;99.90;;;;;;4970203;28;20185;-76
2022/08/01 12:10:24;;;;;;;2.40;1.10;;;24.80;99.90;;;;;;4975461;28;20301;-75
2022/08/01 12:12:53;;;;;;;0.95;0.93;;;25.10;99.90;;;;;;4956253;28;20209;-76
2022/08/01 12:15:22;;;;;;;1.15;0.98;;;25.30;99.90;;;;;;4954127;28;20362;-77
2022/08/01 12:17:58;;;;;;;3.35;2.50;;;25.30;99.90;;;;;;4974705;28;20212;-76
2022/08/01 12:20:29;;;;;;;1.90;1.70;;;25.50;99.90;;;;;;4973274;28;20177;-76
2022/08/01 12:22:57;;;;;;;1.50;1.20;;;25.60;99.90;;;;;;4970206;28;20178;-76
2022/08/01 12:25:23;;;;;;;3.35;1.20;;;26.10;99.90;;;;;;4969016;28;20206;-75
2022/08/01 12:27:49;;;;;;;6.45;3.83;;;26.10;99.90;;;;;;4977553;28;20218;-76
2022/08/01 12:30:18;;;;;;;2.10;1.00;;;25.90;99.90;;;;;;4956307;28;20206;-76
2022/08/01 12:32:47;;;;;;;6.05;1.42;;;26.10;99.90;;;;;;4961168;28;20233;-76
2022/08/01 12:35:19;;;;;;;1.58;1.10;;;26.20;99.90;;;;;;4965842;28;20162;-76
2022/08/01 12:37:47;;;;;;;1.77;1.20;;;26.20;99.90;;;;;;4978759;28;20228;-76
2022/08/01 12:40:27;;;;;;;1.50;1.20;;;26.40;99.90;;;;;;4970497;28;20213;-77
2022/08/01 12:42:56;;;;;;;2.33;1.10;;;26.40;99.90;;;;;;4980072;28;20260;-76
2022/08/01 12:45:25;;;;;;;2.85;1.50;;;26.50;99.90;;;;;;4962678;28;20273;-75
2022/08/01 12:47:53;;;;;;;1.35;1.25;;;26.60;99.90;;;;;;4975301;28;20210;-77
2022/08/01 12:50:22;;;;;;;2.05;0.95;;;26.80;99.90;;;;;;4966677;28;20171;-76
2022/08/01 12:52:49;;;;;;;1.10;1.00;;;26.60;99.90;;;;;;4976821;28;20255;-76